createdAt,value
2024-02-01T00:01:24.190Z,-0.40
2024-02-01T00:03:52.665Z,-0.40
2024-02-01T00:06:21.266Z,-0.40
2024-02-01T00:08:49.796Z,-0.40
2024-02-01T00:11:18.613Z,-0.30
2024-02-01T00:13:48.637Z,-0.30
2024-02-01T00:16:22.358Z,-0.30
2024-02-01T00:18:51.075Z,-0.30
2024-02-01T00:21:20.506Z,-0.20
2024-02-01T00:23:49.023Z,-0.20
2024-02-01T00:26:17.432Z,-0.20
2024-02-01T00:28:47.433Z,-0.30
2024-02-01T00:31:15.783Z,-0.20
2024-02-01T00:33:44.255Z,-0.30
2024-02-01T00:36:12.806Z,-0.30
2024-02-01T00:38:41.245Z,-0.30
2024-02-01T00:41:09.712Z,-0.30
2024-02-01T00:43:38.169Z,-0.30
2024-02-01T00:46:08.148Z,-0.30
2024-02-01T00:48:36.808Z,-0.20
2024-02-01T00:51:06.120Z,-0.20
2024-02-01T00:53:34.556Z,-0.20
2024-02-01T00:56:02.929Z,-0.10
2024-02-01T00:58:31.308Z,-0.10
2024-02-01T01:01:00.323Z,-0.10
2024-02-01T01:03:30.254Z,-0.20
2024-02-01T01:05:58.706Z,-0.10
2024-02-01T01:08:27.256Z,-0.20
2024-02-01T01:10:55.644Z,-0.20
2024-02-01T01:13:24.105Z,-0.20
2024-02-01T01:15:54.731Z,-0.20
2024-02-01T01:18:23.735Z,-0.10
2024-02-01T01:20:53.754Z,-0.10
2024-02-01T01:23:22.684Z,-0.20
2024-02-01T01:25:51.815Z,1.20
2024-02-01T01:28:20.932Z,1.10
2024-02-01T01:30:52.839Z,0.20
2024-02-01T01:33:24.350Z,-0.30
2024-02-01T01:35:54.874Z,0.30
2024-02-01T01:38:24.349Z,1.50
2024-02-01T01:40:53.354Z,-0.20
2024-02-01T01:43:22.538Z,0.10
2024-02-01T01:46:02.898Z,-0.20
2024-02-01T01:48:32.792Z,0.00
2024-02-01T01:51:03.720Z,0.10
2024-02-01T01:53:35.363Z,-0.10
2024-02-01T01:56:04.494Z,-0.30
2024-02-01T01:58:36.010Z,-0.30
2024-02-01T02:01:05.573Z,-0.20
2024-02-01T02:03:38.683Z,-0.30
2024-02-01T02:06:09.448Z,0.80
2024-02-01T02:08:38.431Z,-0.30
2024-02-01T02:11:07.523Z,0.80
2024-02-01T02:13:36.586Z,1.20
2024-02-01T02:16:05.307Z,-0.20
2024-02-01T02:18:33.778Z,-0.20
2024-02-01T02:21:05.124Z,-0.20
2024-02-01T02:23:36.088Z,-0.20
2024-02-01T02:26:08.673Z,-0.20
2024-02-01T02:28:40.225Z,-0.20
2024-02-01T02:31:08.604Z,-0.30
2024-02-01T02:33:37.044Z,-0.30
2024-02-01T02:36:11.103Z,-0.30
2024-02-01T02:38:42.071Z,-0.30
2024-02-01T02:41:10.468Z,-0.30
2024-02-01T02:43:38.727Z,-0.40
2024-02-01T02:46:07.114Z,-0.40
2024-02-01T02:48:35.927Z,-0.40
2024-02-01T02:51:04.492Z,-0.40
2024-02-01T02:53:33.116Z,-0.50
2024-02-01T02:56:06.372Z,-0.50
2024-02-01T02:58:36.544Z,-0.50
2024-02-01T03:01:09.523Z,-0.50
2024-02-01T03:03:41.736Z,-0.50
2024-02-01T03:06:10.943Z,-0.50
2024-02-01T03:08:41.086Z,-0.50
2024-02-01T03:11:12.108Z,-0.50
2024-02-01T03:13:41.099Z,-0.60
2024-02-01T03:16:17.936Z,-0.60
2024-02-01T03:18:46.823Z,-0.60
2024-02-01T03:21:16.141Z,-0.60
2024-02-01T03:23:46.217Z,-0.60
2024-02-01T04:34:24.772Z,-0.70
2024-02-01T04:36:54.331Z,-0.70
2024-02-01T04:39:22.740Z,-0.70
2024-02-01T04:41:55.187Z,-0.70
2024-02-01T04:44:23.681Z,0.00
2024-02-01T04:46:52.079Z,-0.80
2024-02-01T04:49:20.617Z,-0.80
2024-02-01T04:51:50.456Z,-0.80
2024-02-01T04:54:18.904Z,-0.80
2024-02-01T04:56:47.366Z,-0.80
2024-02-01T04:59:15.732Z,-0.80
2024-02-01T05:01:45.244Z,-0.80
2024-02-01T05:04:15.071Z,-0.80
2024-02-01T05:06:43.916Z,-0.80
2024-02-01T05:09:27.083Z,-0.80
2024-02-01T05:11:56.036Z,-0.80
2024-02-01T05:14:24.772Z,-0.80
2024-02-01T05:16:53.398Z,-0.80
2024-02-01T05:19:23.267Z,-0.80
2024-02-01T05:21:54.344Z,-0.70
2024-02-01T05:24:24.673Z,-0.70
2024-02-01T05:26:54.856Z,-0.70
2024-02-01T05:29:24.374Z,-0.70
2024-02-01T05:31:53.607Z,-0.70
2024-02-01T05:34:23.222Z,-0.70
2024-02-01T05:36:54.532Z,-0.70
2024-02-01T05:39:27.220Z,-0.70
2024-02-01T05:41:56.369Z,-0.70
2024-02-01T05:44:25.847Z,-0.70
2024-02-01T05:46:55.577Z,-0.60
2024-02-01T05:49:24.276Z,-0.60
2024-02-01T05:51:54.116Z,-0.60
2024-02-01T05:54:23.915Z,-0.70
2024-02-01T05:56:52.293Z,-0.60
2024-02-01T05:59:22.037Z,-0.60
2024-02-01T06:01:51.017Z,-0.30
2024-02-01T06:04:19.528Z,-0.60
2024-02-01T06:06:49.489Z,-0.20
2024-02-01T06:09:19.000Z,-0.70
2024-02-01T06:11:51.148Z,-0.60
2024-02-01T06:14:20.121Z,-0.70
2024-02-01T06:16:49.254Z,-0.50
2024-02-01T06:19:19.178Z,-0.50
2024-02-01T06:21:48.132Z,-0.30
2024-02-01T06:24:20.209Z,-0.60
2024-02-01T06:26:50.459Z,-0.50
2024-02-01T06:29:19.547Z,-0.50
2024-02-01T06:31:50.606Z,-0.50
2024-02-01T06:34:25.931Z,-0.40
2024-02-01T06:37:00.244Z,-1.60
2024-02-01T06:39:52.016Z,-0.20
2024-02-01T06:42:33.505Z,-0.40
2024-02-01T06:45:25.986Z,-0.40
2024-02-01T06:48:05.837Z,-0.40
2024-02-01T06:50:56.210Z,0.20
2024-02-01T06:53:37.449Z,-0.10
2024-02-01T06:56:15.573Z,-0.40
2024-02-01T06:59:07.905Z,-1.70
2024-02-01T07:01:55.447Z,0.70
2024-02-01T07:04:33.116Z,-0.30
2024-02-01T07:07:19.060Z,0.00
2024-02-01T07:10:01.279Z,-0.20
2024-02-01T07:12:44.797Z,-0.50
2024-02-01T07:15:31.873Z,-0.20
2024-02-01T07:18:05.156Z,-0.10
2024-02-01T07:20:49.114Z,-0.20
2024-02-01T07:23:40.173Z,-0.90
2024-02-01T07:26:19.028Z,-0.10
2024-02-01T07:29:05.707Z,-1.50
2024-02-01T07:31:53.556Z,-0.50
2024-02-01T07:34:39.578Z,-0.10
2024-02-01T07:37:26.391Z,-0.10
2024-02-01T07:40:15.171Z,-0.70
2024-02-01T07:43:01.279Z,-0.90
2024-02-01T07:45:47.165Z,-0.50
2024-02-01T07:48:35.224Z,0.00
2024-02-01T07:51:21.558Z,0.00
2024-02-01T07:54:08.146Z,0.20
2024-02-01T07:56:54.583Z,-0.20
2024-02-01T07:59:31.145Z,1.30
2024-02-01T08:02:15.046Z,0.40
2024-02-01T08:05:04.359Z,0.20
2024-02-01T08:07:50.583Z,0.30
2024-02-01T08:10:21.162Z,0.20
2024-02-01T08:12:51.014Z,-0.20
2024-02-01T08:15:21.572Z,0.10
2024-02-01T08:17:52.326Z,0.20
2024-02-01T08:20:23.675Z,0.80
2024-02-01T08:22:55.989Z,0.20
2024-02-01T08:25:24.976Z,0.40
2024-02-01T08:27:56.142Z,0.20
2024-02-01T08:30:29.359Z,0.20
2024-02-01T08:33:05.374Z,0.30
2024-02-01T08:35:42.038Z,0.30
2024-02-01T08:38:12.444Z,0.00
2024-02-01T08:40:42.689Z,0.30
2024-02-01T08:43:14.819Z,0.30
2024-02-01T08:45:46.561Z,-0.20
2024-02-01T08:48:16.378Z,0.30
2024-02-01T08:50:53.222Z,0.60
2024-02-01T08:53:24.112Z,0.30
2024-02-01T08:55:57.266Z,-0.40
2024-02-01T08:58:28.325Z,1.30
2024-02-01T09:00:57.541Z,0.50
2024-02-01T09:03:31.475Z,0.40
2024-02-01T09:06:27.057Z,0.60
2024-02-01T09:09:26.369Z,0.80
2024-02-01T09:16:02.326Z,0.50
2024-02-01T09:18:31.643Z,1.20
2024-02-01T09:21:08.869Z,1.30
2024-02-01T09:23:41.803Z,1.30
2024-02-01T09:26:11.144Z,1.40
2024-02-01T09:28:43.064Z,1.40
2024-02-01T09:31:21.127Z,1.40
2024-02-01T09:33:52.481Z,1.40
2024-02-01T09:36:22.446Z,1.40
2024-02-01T09:38:53.881Z,1.40
2024-02-01T09:41:22.781Z,1.50
2024-02-01T09:43:53.607Z,1.50
2024-02-01T09:46:22.981Z,1.50
2024-02-01T09:48:56.499Z,1.60
2024-02-01T09:51:25.305Z,1.60
2024-02-01T09:53:55.713Z,1.60
2024-02-01T09:56:27.392Z,1.70
2024-02-01T09:58:57.484Z,1.70
2024-02-01T10:01:26.710Z,1.80
2024-02-01T10:03:55.599Z,1.80
2024-02-01T10:06:25.747Z,1.90
2024-02-01T10:08:56.007Z,1.90
2024-02-01T10:11:24.555Z,2.00
2024-02-01T10:13:53.036Z,2.10
2024-02-01T10:16:23.107Z,2.30
2024-02-01T10:18:56.544Z,2.40
2024-02-01T10:21:33.063Z,2.40
2024-02-01T10:24:11.824Z,2.70
2024-02-01T10:26:41.337Z,2.90
2024-02-01T10:29:22.035Z,3.00
2024-02-01T10:31:57.723Z,2.40
2024-02-01T10:34:28.410Z,3.40
2024-02-01T10:37:02.624Z,2.90
2024-02-01T10:40:07.018Z,2.90
2024-02-01T10:42:37.970Z,2.90
2024-02-01T10:45:11.085Z,2.90
2024-02-01T10:47:49.441Z,2.80
2024-02-01T10:50:20.807Z,1.60
2024-02-01T10:52:52.150Z,2.80
2024-02-01T10:55:24.511Z,3.60
2024-02-01T10:57:53.774Z,3.10
2024-02-01T11:00:23.795Z,3.20
2024-02-01T11:02:59.637Z,3.30
2024-02-01T11:05:32.805Z,3.40
2024-02-01T11:08:01.620Z,3.70
2024-02-01T11:10:32.629Z,3.70
2024-02-01T11:13:01.270Z,3.80
2024-02-01T11:15:33.628Z,4.60
2024-02-01T11:18:10.948Z,4.10
2024-02-01T11:20:41.104Z,4.30
2024-02-01T11:23:09.841Z,4.30
2024-02-01T11:25:41.194Z,4.80
2024-02-01T11:28:13.664Z,4.30
2024-02-01T11:30:58.762Z,4.50
2024-02-01T11:33:36.083Z,4.60
2024-02-01T11:36:08.699Z,4.60
2024-02-01T11:38:37.768Z,4.80
2024-02-01T11:41:08.191Z,4.80
2024-02-01T11:43:40.042Z,4.80
2024-02-01T11:46:08.895Z,4.90
2024-02-01T11:48:43.829Z,4.70
2024-02-01T11:51:12.752Z,4.80
2024-02-01T11:53:41.216Z,4.80
2024-02-01T11:56:11.906Z,4.90
2024-02-01T11:58:40.361Z,5.10
2024-02-01T12:01:16.725Z,5.20
2024-02-01T12:03:51.132Z,5.30
2024-02-01T12:06:24.546Z,5.30
2024-02-01T12:08:53.851Z,5.30
2024-02-01T12:11:30.237Z,5.30
2024-02-01T12:14:02.658Z,5.30
2024-02-01T12:16:34.377Z,5.30
2024-02-01T12:19:05.767Z,5.30
2024-02-01T12:21:36.892Z,5.30
2024-02-01T12:24:05.743Z,5.30
2024-02-01T12:26:44.294Z,5.40
2024-02-01T12:29:12.868Z,5.40
2024-02-01T12:31:42.521Z,5.50
2024-02-01T12:34:14.865Z,5.60
2024-02-01T12:36:46.358Z,5.70
2024-02-01T12:39:15.344Z,5.80
2024-02-01T12:41:48.036Z,5.90
2024-02-01T12:44:17.693Z,6.00
2024-02-01T12:50:43.743Z,6.00
2024-02-01T12:56:55.409Z,5.80
2024-02-01T14:11:07.814Z,7.20
2024-02-01T14:23:43.180Z,6.80
2024-02-01T14:26:19.306Z,6.70
2024-02-01T14:28:50.842Z,6.60
2024-02-01T14:31:33.532Z,5.90
2024-02-01T14:34:03.067Z,6.70
2024-02-01T14:36:41.155Z,7.10
2024-02-01T14:39:23.439Z,5.90
2024-02-01T14:42:00.441Z,6.80
2024-02-01T14:44:30.081Z,6.70
2024-02-01T14:46:58.764Z,6.50
2024-02-01T14:49:27.771Z,6.50
2024-02-01T14:51:57.404Z,6.80
2024-02-01T14:54:27.606Z,6.70
2024-02-01T14:56:56.130Z,6.70
2024-02-01T14:59:25.469Z,6.70
2024-02-01T15:01:54.190Z,6.60
2024-02-01T15:04:22.920Z,6.70
2024-02-01T15:06:51.793Z,6.60
2024-02-01T15:09:22.935Z,6.70
2024-02-01T15:11:53.475Z,6.60
2024-02-01T15:14:22.209Z,6.70
2024-02-01T15:16:50.889Z,6.60
2024-02-01T15:19:20.800Z,6.70
2024-02-01T15:21:52.636Z,6.60
2024-02-01T15:24:24.046Z,6.50
2024-02-01T15:26:58.993Z,6.30
2024-02-01T15:29:27.597Z,6.20
2024-02-01T15:31:56.753Z,6.10
2024-02-01T15:34:25.460Z,5.60
2024-02-01T15:36:54.072Z,6.10
2024-02-01T15:39:23.249Z,6.20
2024-02-01T15:41:52.564Z,6.10
2024-02-01T15:44:22.608Z,6.10
2024-02-01T15:46:51.147Z,6.10
2024-02-01T15:49:19.836Z,6.10
2024-02-01T15:51:50.144Z,6.10
2024-02-01T15:54:18.926Z,6.10
2024-02-01T15:56:49.928Z,6.00
2024-02-01T15:59:18.626Z,6.10
2024-02-01T16:01:48.520Z,6.10
2024-02-01T16:04:17.274Z,6.00
2024-02-01T16:06:45.822Z,5.50
2024-02-01T16:09:14.649Z,6.00
2024-02-01T16:11:43.622Z,5.90
2024-02-01T16:14:17.854Z,5.90
2024-02-01T16:16:48.675Z,6.00
2024-02-01T16:19:28.486Z,6.00
2024-02-01T16:21:57.330Z,5.80
2024-02-01T16:24:53.499Z,5.80
2024-02-01T16:27:57.189Z,5.70
2024-02-01T16:30:57.647Z,5.70
2024-02-01T16:33:32.234Z,5.60
2024-02-01T16:36:06.786Z,5.60
2024-02-01T16:38:40.009Z,5.60
2024-02-01T16:41:29.075Z,5.50
2024-02-01T16:43:57.722Z,5.60
2024-02-01T16:46:56.756Z,5.50
2024-02-01T16:49:38.916Z,5.60
2024-02-01T16:52:24.653Z,5.50
2024-02-01T16:54:53.519Z,5.50
2024-02-01T16:57:22.059Z,5.50
2024-02-01T16:59:51.855Z,5.60
2024-02-01T17:02:47.021Z,5.60
2024-02-01T17:05:27.311Z,5.60
2024-02-01T17:07:56.796Z,5.50
2024-02-01T17:10:49.107Z,5.40
2024-02-01T17:13:17.609Z,5.40
2024-02-01T17:15:46.420Z,5.40
2024-02-01T17:18:17.250Z,5.30
2024-02-01T17:20:47.956Z,5.40
2024-02-01T17:23:17.584Z,5.40
2024-02-01T17:26:08.994Z,5.40
2024-02-01T17:28:39.966Z,5.40
2024-02-01T17:31:16.237Z,5.30
2024-02-01T17:33:53.393Z,5.30
2024-02-01T17:36:25.198Z,5.30
2024-02-01T17:38:54.433Z,5.30
2024-02-01T17:41:23.599Z,5.30
2024-02-01T17:43:53.170Z,5.30
2024-02-01T17:46:48.395Z,4.70
2024-02-01T17:49:49.257Z,5.40
2024-02-01T17:52:49.128Z,5.40
2024-02-01T17:55:24.373Z,5.40
2024-02-01T17:57:57.376Z,5.50
2024-02-01T18:00:28.434Z,5.40
2024-02-01T18:03:00.390Z,5.40
2024-02-01T18:05:35.474Z,5.30
2024-02-01T18:08:07.292Z,5.30
2024-02-01T18:10:39.903Z,5.30
2024-02-01T18:13:09.107Z,5.20
2024-02-01T18:15:55.130Z,5.20
2024-02-01T18:18:26.713Z,5.10
2024-02-01T18:20:57.079Z,5.10
2024-02-01T18:23:29.177Z,5.20
2024-02-01T18:26:05.890Z,5.40
2024-02-01T18:28:36.982Z,5.50
2024-02-01T18:31:07.533Z,5.60
2024-02-01T18:33:40.213Z,5.90
2024-02-01T18:36:10.622Z,6.00
2024-02-01T18:39:02.638Z,6.00
2024-02-01T18:41:34.389Z,5.90
2024-02-01T18:44:23.877Z,5.90
2024-02-01T18:46:53.940Z,5.80
2024-02-01T18:49:25.463Z,5.70
2024-02-01T18:51:59.160Z,5.70
2024-02-01T18:54:30.080Z,5.70
2024-02-01T18:57:00.135Z,5.80
2024-02-01T18:59:52.964Z,5.90
2024-02-01T19:02:54.474Z,5.90
2024-02-01T19:05:23.850Z,6.00
2024-02-01T19:08:01.752Z,6.10
2024-02-01T19:10:47.838Z,6.00
2024-02-01T19:13:47.101Z,6.00
2024-02-01T19:16:19.483Z,5.90
2024-02-01T19:18:48.745Z,5.80
2024-02-01T19:21:17.949Z,5.90
2024-02-01T19:23:46.729Z,5.80
2024-02-01T19:26:17.674Z,5.80
2024-02-01T19:28:57.989Z,5.70
2024-02-01T19:31:26.864Z,5.70
2024-02-01T19:34:02.391Z,5.70
2024-02-01T19:36:34.099Z,5.70
2024-02-01T19:39:11.854Z,4.70
2024-02-01T19:41:45.858Z,4.70
2024-02-01T19:44:15.131Z,5.80
2024-02-01T19:46:44.419Z,5.70
2024-02-01T19:49:15.062Z,5.60
2024-02-01T19:51:46.326Z,5.70
2024-02-01T19:54:19.499Z,5.80
2024-02-01T19:56:52.967Z,5.80
2024-02-01T19:59:23.645Z,5.80
2024-02-01T20:01:52.529Z,5.80
2024-02-01T20:04:22.688Z,5.70
2024-02-01T20:06:51.645Z,5.70
2024-02-01T20:09:20.087Z,5.60
2024-02-01T20:11:50.274Z,5.60
2024-02-01T20:14:19.069Z,5.60
2024-02-01T20:16:47.648Z,5.50
2024-02-01T20:19:16.847Z,5.50
2024-02-01T20:21:46.383Z,5.50
2024-02-01T20:24:17.413Z,5.10
2024-02-01T20:26:49.638Z,5.50
2024-02-01T20:29:20.491Z,5.60
2024-02-01T20:31:50.542Z,5.50
2024-02-01T20:34:35.761Z,5.30
2024-02-01T20:37:06.040Z,5.70
2024-02-01T20:39:38.826Z,5.40
2024-02-01T20:42:13.572Z,5.30
2024-02-01T20:44:43.938Z,4.70
2024-02-01T20:47:15.406Z,5.40
2024-02-01T20:49:45.977Z,5.40
2024-02-01T20:52:22.218Z,6.10
2024-02-01T20:55:10.362Z,5.50
2024-02-01T20:57:40.184Z,5.40
2024-02-01T21:00:20.541Z,5.60
2024-02-01T21:03:02.691Z,5.60
2024-02-01T21:05:42.828Z,5.60
2024-02-01T21:08:15.516Z,5.40
2024-02-01T21:10:48.100Z,5.30
2024-02-01T21:13:18.190Z,5.40
2024-02-01T21:15:50.038Z,5.30
2024-02-01T21:18:22.093Z,5.30
2024-02-01T21:20:51.729Z,4.60
2024-02-01T21:23:36.595Z,4.70
2024-02-01T21:26:25.781Z,5.20
2024-02-01T21:28:59.478Z,5.20
2024-02-01T21:31:50.148Z,5.10
2024-02-01T21:34:21.847Z,5.10
2024-02-01T21:37:10.846Z,5.10
2024-02-01T21:39:50.870Z,5.20
2024-02-01T21:42:49.402Z,5.00
2024-02-01T21:45:24.832Z,4.90
2024-02-01T21:47:56.592Z,4.80
2024-02-01T21:50:26.740Z,4.80
2024-02-01T21:52:56.263Z,4.80
2024-02-01T21:55:26.855Z,4.80
2024-02-01T21:57:57.970Z,4.80
2024-02-01T22:00:26.947Z,4.70
2024-02-01T22:02:59.043Z,4.10
2024-02-01T22:05:29.143Z,4.70
2024-02-01T22:07:58.154Z,4.80
2024-02-01T22:10:26.675Z,4.90
2024-02-01T22:12:55.243Z,4.80
2024-02-01T22:15:28.357Z,4.90
2024-02-01T22:17:58.255Z,4.80
2024-02-01T22:20:27.403Z,5.30
2024-02-01T22:22:56.065Z,4.60
2024-02-01T22:25:25.336Z,5.10
2024-02-01T22:27:55.627Z,4.60
2024-02-01T22:30:24.394Z,4.90
2024-02-01T22:32:53.085Z,4.60
2024-02-01T22:35:23.186Z,4.60
2024-02-01T22:37:51.748Z,4.60
2024-02-01T22:40:20.725Z,4.50
2024-02-01T22:42:49.298Z,4.40
2024-02-01T22:45:18.070Z,3.60
2024-02-01T22:47:46.745Z,4.50
2024-02-01T22:50:15.441Z,4.30
2024-02-01T22:52:45.600Z,4.30
2024-02-01T22:55:14.214Z,4.30
2024-02-01T22:57:42.886Z,4.30
2024-02-01T23:00:18.760Z,4.30
2024-02-01T23:02:47.312Z,4.20
2024-02-01T23:05:15.789Z,4.10
2024-02-01T23:07:45.652Z,4.10
2024-02-01T23:10:18.808Z,4.10
2024-02-01T23:12:47.396Z,4.20
2024-02-01T23:15:16.161Z,4.20
2024-02-01T23:17:45.045Z,4.20
2024-02-01T23:20:14.384Z,4.20
2024-02-01T23:22:44.194Z,4.30
2024-02-01T23:25:14.494Z,4.20
2024-02-01T23:27:44.576Z,4.20
2024-02-01T23:30:14.099Z,4.30
2024-02-01T23:32:42.569Z,4.20
2024-02-01T23:35:11.089Z,4.20
2024-02-01T23:37:39.846Z,4.20
2024-02-01T23:40:12.246Z,4.20
2024-02-01T23:42:42.614Z,4.10
2024-02-01T23:45:12.220Z,4.20
2024-02-01T23:47:41.753Z,4.20
2024-02-01T23:50:13.373Z,4.10
2024-02-01T23:52:45.795Z,4.10
2024-02-01T23:55:14.290Z,4.20
2024-02-01T23:57:44.248Z,4.10
